Weather observations for the past three days for
Houston / Ellington
Imperial (Metric)
Date Time (cdt) Wind (mph) Vis. (mi.) Weather Sky Cond. Temperature (ºF) Relative Humidity Wind Chill (°F) Heat Index (°F) Pressure Precipitation (in)
Air Dwpt 6 hour altimeter (in) sea level (mb) 1 hr 3 hr 6 hr
Max. Min.
07 13:54 N 6 G 14 10.00 Overcast BKN020 OVC030 73.4 62.6 69% 29.96 0.0
07 12:54 N 9 10.00 Overcast OVC020 69.8 60.8 73% 29.98 0.0
07 11:54 N 10 G 16 10.00 Overcast SCT014 OVC018 66.2 59 78% 29.98 0.0
07 09:54 N 12 8.00 Overcast OVC013 64.4 59 83% 29.98 0.0
07 08:54 N 15 8.00 Overcast OVC011 66.2 60.8 83% 29.97 0.0
07 07:54 NW 13 8.00 Overcast OVC013 66.2 60.8 83% 29.97 0.0
07 06:54 N 8 7.00 Overcast OVC014 66.2 62.6 88% 19.93 0.0
07 05:54 N 10 7.00 Overcast OVC013 68 62.6 83% 29.91 0.0
07 04:54 N 13 7.00 Overcast OVC013 68 64.4 88% 29.89 0.0
07 03:54 N 13 7.00 Overcast OVC014 71.6 66.2 83% 29.88 0.0
07 02:54 N 13 7.00 Overcast OVC014 71.6 66.2 83% 29.88 0.0
07 01:54 NW 13 7.00 Overcast OVC014 71.6 66.2 83% 29.89 0.0
06 23:54 NW 13 G 21 7.00 Overcast OVC014 77 71.6 83% 78 29.87 0.0
06 22:54 NW 13 G 21 7.00 Overcast SCT007 OVC014 77 71.6 83% 78 29.87 0.0
06 21:54 S 7 7.00 Overcast OVC011 77 75.2 94% 78 29.83 0.0
06 20:54 S 5 7.00 Mostly Cloudy FEW015 BKN060 78.8 75.2 89% 82 29.82 0.0
06 19:54 SE 9 5.00 Mostly Cloudy with Haze FEW014 BKN060 78.8 75.2 89% 82 29.78 0.0
06 18:54 S 9 4.00 Mostly Cloudy with Haze SCT025 BKN050 80.6 75.2 84% 86 29.78 0.0
06 17:54 SE 15 5.00 Mostly Cloudy with Haze BKN020 BKN050 82.4 75.2 79% 89 29.76 0.0
06 16:54 S 12 5.00 Mostly Cloudy with Haze BKN020 BKN050 84.2 75.2 74% 92 29.76 0.0
06 15:54 S 12 G 17 6.00 Mostly Cloudy with Haze BKN020 BKN050 84.2 75.2 74% 92 29.77 0.0
06 14:54 SE 13 6.00 Overcast with Haze BKN018 OVC050 84.2 75.2 74% 92 29.79 0.0
06 13:54 SE 13 4.00 Overcast with Haze BKN020 OVC050 82.4 75.2 79% 89 29.81 0.0
06 12:54 SE 8 4.00 Fog/Mist BKN012 OVC020 82.4 75.2 79% 89 29.83 0.0
06 11:54 SE 6 3.00 Fog/Mist BKN010 OVC015 80.6 77 89% 87 29.85 0.0
06 10:54 SE 6 4.00 Fog/Mist BKN008 OVC010 78.8 77 94% 83 29.84 0.0
06 10:29 SE 7 5.00 Fog/Mist BKN008 OVC013 78.8 75.2 89% 82 29.82 0.0
06 09:54 SE 8 4.00 Fog/Mist BKN OVC028 78.8 75.2 89% 82 29.81 0.0
06 08:54 SE 9 5.00 Fog/Mist BKN008 BKN012 78.8 77 94% 83 29.81 0.0
06 07:54 SE 9 4.00 Fog/Mist BKN015 OVC050 77 75.2 94% 78 29.81 0.0
06 06:54 SE 9 5.00 Fog/Mist BKN008 BKN031 75.2 75.2 100% 73 29.79 0.0
06 05:54 SE 7 5.00 Overcast OVC009 75.2 75.2 100% 73 29.78 0.0
06 04:54 SE 7 8.00 Mostly Cloudy BKN011 75.2 73.4 94% 74 29.78 0.0
06 00:54 S 10 8.00 Overcast OVC013 77 73.4 89% 78 29.8 0.0
05 23:54 S 10 8.00 Overcast BKN014 OVC033 77 73.4 89% 78 29.81 0.0
05 22:54 S 15 G 21 6.00 Overcast BKN014 OVC032 77 73.4 89% 78 29.8 0.0
05 21:54 S 14 G 23 10.00 Overcast BKN011 OVC022 77 73.4 89% 78 29.79 0.0
05 20:54 S 14 G 23 10.00 Overcast BKN014 OVC032 77 73.4 89% 78 29.76 0.0
05 19:54 S 15 10.00 Overcast SCT015 BKN021 OVC042 77 73.4 89% 78 29.74 0.0
05 18:54 SE 15 10.00 Overcast SCT018 BKN023 OVC042 78.8 73.4 84% 82 29.74 0.0
05 17:54 S 16 G 23 10.00 Overcast SCT022 OVC042 80.6 73.4 79% 85 29.74 0.0
05 16:54 S 21 10.00 Overcast and Breezy BKN016 OVC040 80.6 73.4 79% 85 29.75 0.0
05 15:54 S 16 10.00 Overcast BKN018 OVC029 82.4 73.4 74% 88 29.77 0.0
05 14:54 S 16 G 23 8.00 Overcast BKN016 OVC030 80.6 75.2 84% 86 29.78 0.0
05 13:54 S 14 G 20 8.00 Overcast BKN018 OVC024 78.8 75.2 89% 82 29.79 0.0
05 12:54 S 14 8.00 Overcast BKN011 OVC020 80.6 73.4 79% 85 29.8 0.0
05 11:54 S 14 G 20 8.00 Overcast BKN011 OVC026 78.8 71.6 79% 82 29.81 0.0
05 10:54 S 17 7.00 Overcast BKN025 OVC031 78.8 71.6 79% 82 29.8 0.0
05 09:54 S 16 7.00 Mostly Cloudy BKN016 BKN023 77 73.4 89% 78 29.8 0.0
05 08:54 S 14 G 21 10.00 Overcast SCT015 OVC025 77 71.6 83% 78 29.8 0.0
05 07:54 S 9 10.00 Overcast OVC025 73.4 71.6 94% 29.8 0.0
05 06:54 S 9 10.00 Overcast OVC030 73.4 69.8 89% 29.79 0.0
05 04:54 S 9 10.00 Overcast OVC030 71.6 68 88% 29.78 0.0
05 03:54 S 9 10.00 Overcast OVC030 71.6 68 88% 29.79 0.0
05 01:54 S 12 10.00 Overcast OVC030 69.8 68 94% 29.82 0.0
04 22:54 S 12 10.00 Overcast OVC033 69.8 64.4 83% 29.86 0.0
04 21:54 S 12 10.00 Overcast OVC033 71.6 64.4 78% 29.86 0.0
04 20:54 S 18 10.00 Partly Cloudy SCT035 73.4 64.4 74% 29.85 0.0
04 19:54 S 16 10.00 Partly Cloudy SCT049 73.4 62.6 69% 29.84 0.0
04 18:54 S 13 10.00 Overcast OVC049 75.2 64.4 69% 77 29.85 0.0
04 17:54 S 16 G 22 10.00 Overcast OVC049 77 62.6 61% 79 29.86 0.0
04 16:54 S 20 10.00 Overcast OVC049 77 62.6 61% 79 29.98 0.0
04 15:54 SE 14 G 23 10.00 Mostly Cloudy BKN049 78.8 62.6 58% 80 29.9 0.0
04 14:54 S 14 G 23 10.00 Mostly Cloudy BKN043 78.8 62.6 58% 80 29.92 0.0
Date Time (cdt) Wind (mph) Vis. (mi.) Weather Sky Cond. Air Dwpt Max. Min. Relative Humidity Wind Chill (°F) Heat Index (°F) altimeter (in) sea level (mb) 1 hr 3 hr 6 hr
6 hour
Temperature (ºF) Pressure Precipitation (in)